Thunder radar more information blitzortung!


Radar de pluja more information rain snow radar


Visita la nostra xarxa de llocs de meteo:

Template documentation
and downloads

And another site



Wind From: 11-12-2017 11:00 Until: 14:59 warning for: Wind Level: Yellow info button

Pagina Historial Weather Underground text

Diari Resum May 10, 2017 Unitats:  Mètric    Imperial   Tant
« Previous Dia
SegĂźent Dia »
Diari Setmana Mensual Anual Personalitzada
  Maxima: Minima: Media:
Temperatura: 22.6 °C 12.7 °C 17.8 °C
Punt de rosada: 12.3 °C 9.0 °C 11.1 °C
Humitat: 82 % 49 % 66 %
Wind Speed: 21.2 km/h 0.0 km/h 9.3 km/h
RĂ fegues de vent: 21.2 km/h - -
Vent:- - East
Pression baro: 1009.0 hPa 1001.9 hPa -
Precipitacions: 0.0 mm    
Historical Graphs
 
 
Dades de taula per May 10, 2017
Temps Temperatura Punt de rosada Pression baro Vent Wind Speed RĂ fegues de vent Humitat Rainfall Rate (Hourly)
00:00 13.5 °C 10.3 °C 1006.0 hPa NE 1.6 km/h 3.2 km/h 81 % 0.0 mm
00:04 15.5 °C 11.3 °C 1009.0 hPa ENE 4.2 km/h 4.2 km/h 76 % 0.0 mm
00:10 13.4 °C 10.2 °C 1006.0 hPa NE 1.6 km/h 3.2 km/h 81 % 0.0 mm
00:20 13.3 °C 10.1 °C 1006.0 hPa Calm   1.6 km/h 81 % 0.0 mm
00:30 13.2 °C 10.0 °C 1006.0 hPa Calm   3.2 km/h 81 % 0.0 mm
00:40 13.1 °C 9.9 °C 1006.0 hPa WNW 1.6 km/h 3.2 km/h 81 % 0.0 mm
00:50 13.0 °C 9.8 °C 1006.0 hPa Calm   4.8 km/h 81 % 0.0 mm
01:00 12.9 °C 9.7 °C 1006.0 hPa Calm   3.2 km/h 81 % 0.0 mm
01:10 13.0 °C 9.8 °C 1006.0 hPa Calm   1.6 km/h 81 % 0.0 mm
01:20 13.0 °C 9.8 °C 1006.0 hPa Calm   1.6 km/h 81 % 0.0 mm
01:30 13.0 °C 10.0 °C 1006.0 hPa Calm   3.2 km/h 82 % 0.0 mm
01:40 12.7 °C 9.7 °C 1006.0 hPa Calm   1.6 km/h 82 % 0.0 mm
01:50 12.8 °C 9.8 °C 1006.0 hPa Calm     82 % 0.0 mm
02:00 12.9 °C 9.9 °C 1006.0 hPa NNW 3.2 km/h 3.2 km/h 82 % 0.0 mm
02:10 12.8 °C 9.8 °C 1006.0 hPa NNE 1.6 km/h 4.8 km/h 82 % 0.0 mm
02:20 12.8 °C 9.8 °C 1006.0 hPa Calm   3.2 km/h 82 % 0.0 mm
02:30 13.0 °C 9.6 °C 1006.0 hPa NNE 1.6 km/h 6.4 km/h 80 % 0.0 mm
02:40 13.1 °C 9.6 °C 1005.0 hPa NNE 4.8 km/h 6.4 km/h 79 % 0.0 mm
02:50 13.2 °C 9.4 °C 1006.0 hPa NNE 4.8 km/h 9.7 km/h 78 % 0.0 mm
03:00 13.4 °C 9.4 °C 1006.0 hPa NE 4.8 km/h 6.4 km/h 77 % 0.0 mm
03:10 13.7 °C 9.6 °C 1006.0 hPa NE 4.8 km/h 6.4 km/h 76 % 0.0 mm
03:20 13.8 °C 9.7 °C 1007.0 hPa NNE 3.2 km/h 6.4 km/h 76 % 0.0 mm
03:30 13.9 °C 9.6 °C 1007.0 hPa NNE 4.8 km/h 6.4 km/h 75 % 0.0 mm
03:40 14.1 °C 9.6 °C 1006.0 hPa NNE 1.6 km/h 8.0 km/h 74 % 0.0 mm
03:50 14.2 °C 9.4 °C 1006.0 hPa NNE 1.6 km/h 6.4 km/h 73 % 0.0 mm
04:00 14.3 °C 9.3 °C 1006.0 hPa NE 4.8 km/h 8.0 km/h 72 % 0.0 mm
04:10 14.4 °C 9.0 °C 1007.0 hPa NNE 8.0 km/h 9.7 km/h 70 % 0.0 mm
04:20 14.7 °C 9.3 °C 1006.0 hPa NE 3.2 km/h 4.8 km/h 70 % 0.0 mm
04:30 14.8 °C 9.4 °C 1006.0 hPa NE 3.2 km/h 9.7 km/h 70 % 0.0 mm
04:40 15.1 °C 9.4 °C 1006.0 hPa NE 4.8 km/h 4.8 km/h 69 % 0.0 mm
04:50 15.4 °C 9.5 °C 1007.0 hPa NNE 3.2 km/h 6.4 km/h 68 % 0.0 mm
05:00 15.6 °C 9.5 °C 1007.0 hPa NNE 4.8 km/h 6.4 km/h 67 % 0.0 mm
05:10 15.6 °C 9.3 °C 1006.0 hPa NNE 4.8 km/h 9.7 km/h 66 % 0.0 mm
05:20 15.9 °C 9.6 °C 1007.0 hPa NE 1.6 km/h 6.4 km/h 66 % 0.0 mm
10:30 16.3 °C 9.7 °C 1007.0 hPa North 3.7 km/h 3.7 km/h 65 % 0.0 mm
10:35 16.4 °C 9.6 °C 1007.0 hPa ENE 5.6 km/h 5.6 km/h 64 % 0.0 mm
10:40 16.5 °C 9.7 °C 1007.0 hPa NNE 4.2 km/h 4.2 km/h 64 % 0.0 mm
10:45 16.6 °C 9.5 °C 1007.0 hPa NNW 3.5 km/h 3.5 km/h 63 % 0.0 mm
10:50 16.8 °C 9.9 °C 1007.0 hPa NNE 3.7 km/h 3.7 km/h 64 % 0.0 mm
10:55 16.7 °C 9.6 °C 1007.0 hPa NNE 4.2 km/h 4.2 km/h 63 % 0.0 mm
11:00 16.8 °C 9.9 °C 1007.0 hPa NE 3.7 km/h 3.7 km/h 64 % 0.0 mm
11:05 16.9 °C 9.8 °C 1007.0 hPa NE 4.7 km/h 4.7 km/h 63 % 0.0 mm
11:06 16.9 °C 9.8 °C 1007.0 hPa NE 4.7 km/h 4.7 km/h 63 % 0.0 mm
11:11 16.8 °C 9.5 °C 1006.0 hPa East 5.6 km/h 5.6 km/h 62 % 0.0 mm
11:16 17.1 °C 9.8 °C 1006.0 hPa NE 3.9 km/h 3.9 km/h 62 % 0.0 mm
11:21 17.3 °C 9.7 °C 1006.0 hPa North 1.9 km/h 1.9 km/h 61 % 0.0 mm
11:26 17.5 °C 10.1 °C 1007.0 hPa Calm     62 % 0.0 mm
11:31 17.5 °C 9.7 °C 1007.0 hPa ENE 5.6 km/h 5.6 km/h 60 % 0.0 mm
11:36 17.6 °C 10.0 °C 1007.0 hPa East 1.9 km/h 1.9 km/h 61 % 0.0 mm
11:41 17.9 °C 10.3 °C 1007.0 hPa ENE 2.3 km/h 2.6 km/h 61 % 0.0 mm
11:46 18.2 °C 10.3 °C 1007.0 hPa NNE 3.5 km/h   60 % 0.0 mm
11:51 18.6 °C 10.4 °C 1007.0 hPa ENE 5.6 km/h 5.6 km/h 59 % 0.0 mm
11:56 18.5 °C 10.3 °C 1007.0 hPa ENE 3.9 km/h 3.9 km/h 59 % 0.0 mm
12:01 19.0 °C 10.6 °C 1007.0 hPa East 3.7 km/h 3.7 km/h 58 % 0.0 mm
12:06 19.3 °C 10.3 °C 1007.0 hPa ENE 3.7 km/h 3.7 km/h 56 % 0.0 mm
12:11 19.9 °C 11.1 °C 1006.0 hPa ENE 5.6 km/h 5.6 km/h 57 % 0.0 mm
12:16 20.2 °C 10.9 °C 1006.0 hPa ENE 5.8 km/h 6.1 km/h 55 % 0.0 mm
12:21 20.3 °C 10.7 °C 1006.0 hPa SE 6.4 km/h 6.4 km/h 54 % 0.0 mm
12:26 20.6 °C 10.7 °C 1006.0 hPa ENE 3.7 km/h 3.7 km/h 53 % 0.0 mm
12:31 20.1 °C 9.7 °C 1006.0 hPa SE 11.1 km/h 11.1 km/h 51 % 0.0 mm
12:36 20.5 °C 10.3 °C 1006.0 hPa Calm     52 % 0.0 mm
12:41 21.2 °C 10.7 °C 1006.0 hPa NE 6.9 km/h 6.9 km/h 51 % 0.0 mm
12:46 21.6 °C 11.0 °C 1006.0 hPa SE 9.0 km/h 9.0 km/h 51 % 0.0 mm
12:51 21.1 °C 10.6 °C 1006.0 hPa SSE 11.1 km/h 11.1 km/h 51 % 0.0 mm
12:56 21.2 °C 10.9 °C 1006.0 hPa ESE 6.9 km/h 6.9 km/h 52 % 0.0 mm
13:01 21.2 °C 10.7 °C 1006.0 hPa East 9.3 km/h 9.3 km/h 51 % 0.0 mm
13:06 21.0 °C 10.5 °C 1006.0 hPa ENE 9.3 km/h 9.3 km/h 51 % 0.0 mm
13:11 21.1 °C 10.6 °C 1006.0 hPa East 9.3 km/h 9.3 km/h 51 % 0.0 mm
13:16 21.6 °C 11.0 °C 1006.0 hPa SE 11.1 km/h 11.1 km/h 51 % 0.0 mm
13:21 21.5 °C 10.6 °C 1006.0 hPa ESE 13.0 km/h 13.0 km/h 50 % 0.0 mm
13:26 21.5 °C 10.6 °C 1006.0 hPa ESE 11.4 km/h 11.4 km/h 50 % 0.0 mm
13:31 21.5 °C 10.6 °C 1006.0 hPa East 7.4 km/h 7.4 km/h 50 % 0.0 mm
13:36 22.1 °C 11.2 °C 1006.0 hPa NNE 14.8 km/h 14.8 km/h 50 % 0.0 mm
13:41 22.2 °C 11.6 °C 1006.0 hPa ESE 9.7 km/h 9.7 km/h 51 % 0.0 mm
13:46 21.7 °C 10.5 °C 1006.0 hPa ENE 16.7 km/h 16.7 km/h 49 % 0.0 mm
13:51 21.6 °C 10.4 °C 1006.0 hPa ESE 20.4 km/h 20.4 km/h 49 % 0.0 mm
13:56 21.6 °C 10.7 °C 1006.0 hPa ESE 16.7 km/h 16.7 km/h 50 % 0.0 mm
14:01 22.3 °C 11.7 °C 1006.0 hPa East 16.1 km/h 16.1 km/h 51 % 0.0 mm
14:06 22.3 °C 11.4 °C 1006.0 hPa SE 13.0 km/h 13.0 km/h 50 % 0.0 mm
14:11 22.6 °C 11.9 °C 1006.0 hPa ESE 9.3 km/h 9.3 km/h 51 % 0.0 mm
14:16 21.8 °C 11.2 °C 1006.0 hPa East 16.7 km/h 16.7 km/h 51 % 0.0 mm
14:21 21.8 °C 11.2 °C 1006.0 hPa ESE 16.7 km/h 16.7 km/h 51 % 0.0 mm
14:26 21.9 °C 11.3 °C 1005.0 hPa SE 13.0 km/h 13.0 km/h 51 % 0.0 mm
14:31 21.6 °C 11.0 °C 1005.0 hPa ESE 16.7 km/h 16.7 km/h 51 % 0.0 mm
14:36 21.3 °C 10.7 °C 1005.0 hPa ESE 16.7 km/h 16.7 km/h 51 % 0.0 mm
14:41 21.1 °C 10.6 °C 1003.9 hPa ENE 13.0 km/h 13.0 km/h 51 % 0.0 mm
14:46 21.1 °C 10.8 °C 1003.9 hPa East 20.4 km/h 20.4 km/h 52 % 0.0 mm
14:51 21.0 °C 10.8 °C 1003.9 hPa East 16.7 km/h 16.7 km/h 52 % 0.0 mm
14:56 21.4 °C 11.1 °C 1005.0 hPa ESE 16.7 km/h 16.7 km/h 52 % 0.0 mm
15:01 21.6 °C 11.3 °C 1005.0 hPa ESE 15.6 km/h 15.6 km/h 52 % 0.0 mm
15:06 21.3 °C 11.1 °C 1005.0 hPa ESE 14.8 km/h 14.8 km/h 52 % 0.0 mm
15:11 21.2 °C 11.2 °C 1005.0 hPa ESE 9.3 km/h 9.3 km/h 53 % 0.0 mm
15:16 21.2 °C 10.9 °C 1005.0 hPa East 14.8 km/h 14.8 km/h 52 % 0.0 mm
15:21 21.3 °C 11.1 °C 1005.0 hPa East 16.7 km/h 16.7 km/h 52 % 0.0 mm
15:26 21.3 °C 11.3 °C 1003.9 hPa ESE 14.8 km/h 14.8 km/h 53 % 0.0 mm
15:31 21.2 °C 11.2 °C 1003.9 hPa ESE 18.5 km/h 18.5 km/h 53 % 0.0 mm
15:36 21.4 °C 11.4 °C 1003.9 hPa ESE 17.5 km/h 17.5 km/h 53 % 0.0 mm
15:41 21.3 °C 11.6 °C 1003.9 hPa ESE 13.0 km/h 13.0 km/h 54 % 0.0 mm
15:46 21.2 °C 11.2 °C 1003.9 hPa ESE 18.5 km/h 18.5 km/h 53 % 0.0 mm
15:51 21.3 °C 11.1 °C 1003.9 hPa ENE 16.7 km/h 16.7 km/h 52 % 0.0 mm
15:56 21.5 °C 11.2 °C 1003.9 hPa ENE 16.7 km/h 16.7 km/h 52 % 0.0 mm
16:01 21.3 °C 11.1 °C 1003.9 hPa SE 16.4 km/h 16.4 km/h 52 % 0.0 mm
16:06 21.3 °C 10.7 °C 1003.9 hPa ESE 14.8 km/h 14.8 km/h 51 % 0.0 mm
16:11 21.4 °C 11.1 °C 1003.9 hPa ESE 14.8 km/h 14.8 km/h 52 % 0.0 mm
16:16 21.2 °C 10.9 °C 1003.9 hPa ENE 18.5 km/h 18.5 km/h 52 % 0.0 mm
16:21 21.0 °C 10.8 °C 1003.9 hPa ESE 14.8 km/h 14.8 km/h 52 % 0.0 mm
16:26 21.1 °C 11.2 °C 1003.9 hPa ESE 20.4 km/h 20.4 km/h 53 % 0.0 mm
16:31 21.0 °C 11.1 °C 1003.9 hPa ESE 16.7 km/h 16.7 km/h 53 % 0.0 mm
16:36 21.2 °C 11.5 °C 1003.9 hPa ESE 14.8 km/h 14.8 km/h 54 % 0.0 mm
16:41 21.2 °C 11.2 °C 1003.9 hPa SSE 9.3 km/h 9.3 km/h 53 % 0.0 mm
16:46 21.1 °C 11.4 °C 1003.9 hPa SE 16.7 km/h 16.7 km/h 54 % 0.0 mm
16:52 21.1 °C 11.4 °C 1003.9 hPa ESE 20.4 km/h 20.4 km/h 54 % 0.0 mm
16:57 21.0 °C 11.6 °C 1003.9 hPa ESE 18.5 km/h 18.5 km/h 55 % 0.0 mm
17:02 20.6 °C 11.5 °C 1003.9 hPa SE 16.7 km/h 16.7 km/h 56 % 0.0 mm
17:07 20.7 °C 11.9 °C 1003.9 hPa ESE 11.1 km/h 11.9 km/h 57 % 0.0 mm
17:12 20.4 °C 11.6 °C 1003.9 hPa ESE 16.7 km/h 16.7 km/h 57 % 0.0 mm
17:17 20.3 °C 11.8 °C 1003.9 hPa SE 14.8 km/h 14.8 km/h 58 % 0.0 mm
17:22 20.2 °C 11.7 °C 1003.9 hPa ESE 21.2 km/h 21.2 km/h 58 % 0.0 mm
17:27 20.0 °C 11.5 °C 1003.9 hPa East 16.7 km/h 16.7 km/h 58 % 0.0 mm
17:32 20.0 °C 11.7 °C 1003.9 hPa East 12.6 km/h 12.6 km/h 59 % 0.0 mm
17:37 20.2 °C 12.2 °C 1003.9 hPa South 11.1 km/h 11.1 km/h 60 % 0.0 mm
17:42 20.3 °C 12.0 °C 1003.9 hPa East 16.7 km/h 16.7 km/h 59 % 0.0 mm
17:47 20.1 °C 11.8 °C 1003.9 hPa ESE 13.0 km/h 13.0 km/h 59 % 0.0 mm
17:52 19.7 °C 11.7 °C 1003.9 hPa ENE 18.5 km/h 18.5 km/h 60 % 0.0 mm
17:57 19.8 °C 12.1 °C 1002.9 hPa SSE 10.0 km/h 10.0 km/h 61 % 0.0 mm
18:03 19.9 °C 12.2 °C 1002.9 hPa ESE 16.7 km/h 16.7 km/h 61 % 0.0 mm
18:08 19.8 °C 12.1 °C 1002.9 hPa ESE 14.5 km/h 14.5 km/h 61 % 0.0 mm
18:13 19.5 °C 11.8 °C 1003.9 hPa ENE 13.0 km/h 13.0 km/h 61 % 0.0 mm
18:18 19.6 °C 12.1 °C 1003.9 hPa ESE 18.5 km/h 18.5 km/h 62 % 0.0 mm
18:23 19.6 °C 12.1 °C 1003.9 hPa ESE 10.0 km/h 10.3 km/h 62 % 0.0 mm
18:28 19.4 °C 11.9 °C 1003.9 hPa ESE 16.7 km/h 16.7 km/h 62 % 0.0 mm
18:33 19.3 °C 11.8 °C 1003.9 hPa ESE 14.8 km/h 14.8 km/h 62 % 0.0 mm
18:38 19.1 °C 11.9 °C 1003.9 hPa ESE 16.7 km/h 16.7 km/h 63 % 0.0 mm
18:43 19.1 °C 11.9 °C 1003.9 hPa ENE 13.0 km/h 13.0 km/h 63 % 0.0 mm
18:48 19.1 °C 11.9 °C 1003.9 hPa East 11.9 km/h 14.5 km/h 63 % 0.0 mm
18:53 18.8 °C 11.8 °C 1003.9 hPa East 14.8 km/h 14.8 km/h 64 % 0.0 mm
18:58 18.8 °C 12.1 °C 1003.9 hPa East 7.4 km/h 7.4 km/h 65 % 0.0 mm
19:04 18.9 °C 12.2 °C 1003.9 hPa East 9.3 km/h 9.3 km/h 65 % 0.0 mm
19:09 18.7 °C 11.7 °C 1003.9 hPa ESE 18.5 km/h 18.5 km/h 64 % 0.0 mm
19:14 18.7 °C 11.7 °C 1002.9 hPa SE 14.8 km/h 14.8 km/h 64 % 0.0 mm
19:19 18.7 °C 11.7 °C 1002.9 hPa ESE 13.0 km/h 13.0 km/h 64 % 0.0 mm
19:20 15.8 °C 12.3 °C 1003.9 hPa NE 3.2 km/h 9.7 km/h 80 % 0.0 mm
19:25 18.7 °C 11.7 °C 1002.9 hPa East 4.8 km/h 12.9 km/h 64 % 0.0 mm
19:30 18.4 °C 11.2 °C 1003.9 hPa East 9.3 km/h 9.3 km/h 63 % 0.0 mm
19:35 18.3 °C 11.4 °C 1003.9 hPa ENE 3.2 km/h 9.7 km/h 64 % 0.0 mm
19:40 18.2 °C 11.3 °C 1003.9 hPa NNE 12.2 km/h 12.2 km/h 64 % 0.0 mm
19:45 18.1 °C 11.2 °C 1003.9 hPa East 9.5 km/h 9.5 km/h 64 % 0.0 mm
19:50 17.9 °C 11.2 °C 1003.9 hPa ENE 7.4 km/h 7.4 km/h 65 % 0.0 mm
19:55 17.9 °C 11.2 °C 1003.9 hPa East 8.0 km/h 9.7 km/h 65 % 0.0 mm
20:00 17.8 °C 11.3 °C 1003.9 hPa ESE 11.1 km/h 11.1 km/h 66 % 0.0 mm
20:05 17.8 °C 11.3 °C 1003.9 hPa ESE 11.9 km/h 11.9 km/h 66 % 0.0 mm
20:10 17.7 °C 11.3 °C 1003.9 hPa ENE 18.5 km/h 18.5 km/h 66 % 0.0 mm
20:15 17.6 °C 11.2 °C 1003.9 hPa ENE 13.0 km/h 13.0 km/h 66 % 0.0 mm
20:20 17.5 °C 11.3 °C 1003.9 hPa ENE 13.0 km/h 13.0 km/h 67 % 0.0 mm
20:22 17.4 °C 11.2 °C 1003.9 hPa East 16.7 km/h 16.7 km/h 67 % 0.0 mm
20:27 17.3 °C 11.6 °C 1003.9 hPa East 14.8 km/h 14.8 km/h 69 % 0.0 mm
20:30 15.5 °C 11.9 °C 1003.9 hPa NE 4.8 km/h 9.7 km/h 79 % 0.0 mm
20:32 17.2 °C 11.7 °C 1003.9 hPa NE 13.7 km/h 13.7 km/h 70 % 0.0 mm
20:37 17.1 °C 11.6 °C 1003.9 hPa ENE 13.0 km/h 13.0 km/h 70 % 0.0 mm
20:40 15.4 °C 11.8 °C 1002.9 hPa NE 4.8 km/h 6.4 km/h 79 % 0.0 mm
20:42 17.0 °C 11.7 °C 1003.9 hPa NNE 13.0 km/h 13.0 km/h 71 % 0.0 mm
20:47 17.0 °C 11.7 °C 1003.9 hPa ENE 13.7 km/h 13.7 km/h 71 % 0.0 mm
20:50 15.4 °C 11.8 °C 1002.9 hPa NE 8.0 km/h 8.0 km/h 79 % 0.0 mm
20:53 16.9 °C 11.8 °C 1003.9 hPa NNE 9.5 km/h 9.5 km/h 72 % 0.0 mm
20:58 16.8 °C 11.9 °C 1003.9 hPa East 11.1 km/h 11.1 km/h 73 % 0.0 mm
21:00 15.3 °C 11.7 °C 1002.9 hPa NE 4.8 km/h 6.4 km/h 79 % 0.0 mm
21:03 16.7 °C 11.8 °C 1003.9 hPa North 13.0 km/h 13.0 km/h 73 % 0.0 mm
21:08 16.7 °C 12.1 °C 1003.9 hPa NNE 9.3 km/h 9.3 km/h 74 % 0.0 mm
21:10 15.2 °C 11.6 °C 1002.9 hPa NE 8.0 km/h 8.0 km/h 79 % 0.0 mm
21:13 16.6 °C 11.9 °C 1003.9 hPa East 16.7 km/h 16.7 km/h 74 % 0.0 mm
21:19 16.5 °C 12.1 °C 1003.9 hPa NE 14.8 km/h 14.8 km/h 75 % 0.0 mm
21:20 15.1 °C 11.5 °C 1001.9 hPa NE 4.8 km/h 9.7 km/h 79 % 0.0 mm
21:24 16.4 °C 11.9 °C 1003.9 hPa ENE 11.1 km/h 11.1 km/h 75 % 0.0 mm
21:29 16.4 °C 12.2 °C 1003.9 hPa East 11.1 km/h 11.1 km/h 76 % 0.0 mm
21:30 15.1 °C 11.5 °C 1001.9 hPa NE 4.8 km/h 6.4 km/h 79 % 0.0 mm
21:34 16.4 °C 12.2 °C 1003.9 hPa ENE 7.4 km/h 7.4 km/h 76 % 0.0 mm
21:39 16.4 °C 12.2 °C 1003.9 hPa ENE 11.4 km/h 11.4 km/h 76 % 0.0 mm
21:40 15.0 °C 11.6 °C 1001.9 hPa ENE 8.0 km/h 9.7 km/h 80 % 0.0 mm
21:44 16.3 °C 12.3 °C 1003.9 hPa ENE 9.7 km/h 9.7 km/h 77 % 0.0 mm
21:49 16.3 °C 12.3 °C 1003.9 hPa ENE 5.6 km/h 5.6 km/h 77 % 0.0 mm
21:50 15.0 °C 11.6 °C 1001.9 hPa NE 4.8 km/h 9.7 km/h 80 % 0.0 mm
21:54 16.2 °C 12.2 °C 1003.9 hPa NNE 9.3 km/h 9.3 km/h 77 % 0.0 mm
21:59 16.2 °C 12.3 °C 1003.9 hPa East 9.3 km/h 9.3 km/h 78 % 0.0 mm
22:00 14.9 °C 11.5 °C 1001.9 hPa NE 4.8 km/h 8.0 km/h 80 % 0.0 mm
22:04 16.1 °C 12.3 °C 1003.9 hPa East 7.4 km/h 7.4 km/h 78 % 0.0 mm
22:10 16.1 °C 12.3 °C 1003.9 hPa NNE 7.6 km/h 7.9 km/h 78 % 0.0 mm
22:15 16.0 °C 12.2 °C 1003.9 hPa NNE 7.4 km/h 7.4 km/h 78 % 0.0 mm
22:20 16.0 °C 12.2 °C 1003.9 hPa NNE 9.3 km/h 9.3 km/h 78 % 0.0 mm
22:25 16.0 °C 12.3 °C 1003.9 hPa ENE 4.8 km/h 9.7 km/h 79 % 0.0 mm
22:30 16.0 °C 12.3 °C 1003.9 hPa NNE 9.3 km/h 9.3 km/h 79 % 0.0 mm
22:35 16.0 °C 12.3 °C 1003.9 hPa ENE 4.8 km/h 16.1 km/h 79 % 0.0 mm
22:40 15.9 °C 12.3 °C 1003.9 hPa NE 11.1 km/h 11.1 km/h 79 % 0.0 mm
22:45 15.9 °C 12.3 °C 1003.9 hPa NE 7.4 km/h 7.4 km/h 79 % 0.0 mm
22:50 15.9 °C 12.3 °C 1003.9 hPa NE 4.8 km/h 9.7 km/h 79 % 0.0 mm
22:55 15.9 °C 12.3 °C 1003.9 hPa NE 8.0 km/h 9.7 km/h 79 % 0.0 mm
23:00 15.9 °C 12.3 °C 1003.9 hPa NE 3.2 km/h 9.7 km/h 79 % 0.0 mm
23:05 15.9 °C 12.3 °C 1003.9 hPa ESE 7.4 km/h 7.4 km/h 79 % 0.0 mm
23:10 15.9 °C 12.3 °C 1003.9 hPa ENE 11.1 km/h 11.1 km/h 79 % 0.0 mm
23:15 15.9 °C 12.3 °C 1003.9 hPa ESE 10.0 km/h 10.0 km/h 79 % 0.0 mm
23:20 16.0 °C 12.3 °C 1003.9 hPa ENE 9.3 km/h 9.3 km/h 79 % 0.0 mm
23:26 16.0 °C 12.3 °C 1003.9 hPa ENE 7.4 km/h 7.4 km/h 79 % 0.0 mm
23:30 14.7 °C 11.4 °C 1001.9 hPa ENE 4.8 km/h 6.4 km/h 81 % 0.0 mm
23:31 16.0 °C 12.3 °C 1003.9 hPa NE 10.0 km/h 10.0 km/h 79 % 0.0 mm
23:36 15.9 °C 12.3 °C 1003.9 hPa NNE 5.6 km/h 5.6 km/h 79 % 0.0 mm
23:40 14.7 °C 11.4 °C 1001.9 hPa ENE 4.8 km/h 6.4 km/h 81 % 0.0 mm
23:41 15.9 °C 12.3 °C 1003.9 hPa NNE 9.3 km/h 9.3 km/h 79 % 0.0 mm
23:46 15.8 °C 12.2 °C 1003.9 hPa NNE 11.1 km/h 11.1 km/h 79 % 0.0 mm
23:50 14.7 °C 11.4 °C 1001.9 hPa ENE 4.8 km/h 6.4 km/h 81 % 0.0 mm
23:51 15.8 °C 12.2 °C 1003.9 hPa NNE 6.4 km/h 6.4 km/h 79 % 0.0 mm
23:57 15.8 °C 12.2 °C 1003.9 hPa East 7.6 km/h 7.6 km/h 79 % 0.0 mm
Meteo Sesrovires
Elogis d' Weather Underground - 3.5 mb

Guio original per  Jim McMurry - jmcmurry@mwt.net Adaptat per a la plantilla per  Wim van der Kuil - Leuven-Template.eu

Trobareu la nostra informacio del temps tambe a:

Weather Underground

AWEKAS